Time;durP1;ratioP1;P1;durP2;ratioP2;P2;SDS_P1;SDS_P2;PMS_P1;PMS_P2;Temp;Humidity;BMP_temperature;BMP_pressure;BME280_temperature;BME280_humidity;BME280_pressure;Samples;Min_cycle;Max_cycle;Signal;HPM_P1;HPM_P2
2022/05/26 00:00:17;;;;;;;5.20;3.77;;;14.00;99.90;;;;;;5023923;28;20310;-70
2022/05/26 00:02:47;;;;;;;3.83;3.43;;;14.00;99.90;;;;;;5023976;28;20243;-69
2022/05/26 00:05:15;;;;;;;8.53;4.30;;;14.00;99.90;;;;;;5023653;28;20298;-69
2022/05/26 00:07:45;;;;;;;6.13;3.80;;;14.00;99.90;;;;;;5024746;28;20235;-69
2022/05/26 00:10:13;;;;;;;6.33;4.03;;;14.00;99.90;;;;;;5023780;28;20330;-69
2022/05/26 00:12:42;;;;;;;5.90;3.80;;;14.00;99.90;;;;;;5023065;28;20692;-67
2022/05/26 00:15:12;;;;;;;5.03;4.07;;;14.10;99.90;;;;;;5024547;28;20346;-69
2022/05/26 00:17:40;;;;;;;5.47;3.93;;;14.00;99.90;;;;;;5022933;28;20286;-68
2022/05/26 00:20:10;;;;;;;5.17;4.07;;;14.00;99.90;;;;;;5023721;28;20251;-69
2022/05/26 00:22:38;;;;;;;5.20;4.20;;;14.00;99.90;;;;;;5023255;28;20251;-67
2022/05/26 00:25:08;;;;;;;6.83;4.47;;;14.00;99.90;;;;;;5023987;28;20274;-69
2022/05/26 00:27:36;;;;;;;5.67;4.67;;;14.00;99.90;;;;;;5022490;28;20247;-69
2022/05/26 00:30:05;;;;;;;5.90;4.43;;;14.00;99.90;;;;;;5024429;28;20250;-69
2022/05/26 00:32:35;;;;;;;10.07;4.67;;;14.00;99.90;;;;;;5023672;28;20294;-67
2022/05/26 00:35:04;;;;;;;6.57;4.67;;;14.00;99.90;;;;;;5023827;28;20731;-70
2022/05/26 00:37:32;;;;;;;9.37;5.10;;;14.00;99.90;;;;;;5024378;28;20336;-68
2022/05/26 00:40:01;;;;;;;6.33;4.53;;;14.00;99.90;;;;;;5023504;28;20243;-68
2022/05/26 00:42:31;;;;;;;6.00;4.37;;;14.00;99.90;;;;;;5022665;28;20235;-69
2022/05/26 00:44:59;;;;;;;5.70;4.93;;;14.00;99.90;;;;;;5022369;28;20248;-69
2022/05/26 00:47:31;;;;;;;5.10;4.60;;;14.00;99.90;;;;;;5022868;28;20258;-69
2022/05/26 00:50:02;;;;;;;5.57;5.00;;;14.00;99.90;;;;;;5023791;28;20244;-69
2022/05/26 00:52:36;;;;;;;7.13;5.07;;;14.00;99.90;;;;;;5022903;28;20786;-69
2022/05/26 00:55:08;;;;;;;6.73;5.30;;;14.00;99.90;;;;;;5022499;28;20246;-70
2022/05/26 00:57:42;;;;;;;5.70;5.20;;;13.90;99.90;;;;;;5022527;28;20243;-70
2022/05/26 01:00:13;;;;;;;7.93;5.43;;;14.00;99.90;;;;;;5022991;28;20350;-68
2022/05/26 01:02:47;;;;;;;7.63;5.00;;;14.00;99.90;;;;;;5022260;28;20274;-70
2022/05/26 01:05:22;;;;;;;5.10;4.60;;;14.00;99.90;;;;;;5023278;28;20716;-68
2022/05/26 01:07:51;;;;;;;6.63;5.23;;;14.10;99.90;;;;;;5022286;28;20242;-70
2022/05/26 01:10:19;;;;;;;5.93;5.27;;;14.00;99.90;;;;;;5021764;28;20274;-68
2022/05/26 01:12:48;;;;;;;6.83;6.13;;;14.00;99.90;;;;;;5021913;28;20326;-70
2022/05/26 01:15:20;;;;;;;6.03;5.27;;;14.10;99.90;;;;;;5023471;28;20236;-69
2022/05/26 01:17:58;;;;;;;9.17;5.73;;;14.00;99.90;;;;;;5022011;28;20343;-69
2022/05/26 01:20:50;;;;;;;6.50;5.47;;;14.00;99.90;;;;;;5022004;28;20263;-70
2022/05/26 01:23:55;;;;;;;8.07;5.93;;;14.10;99.90;;;;;;5020815;28;20268;-69
2022/05/26 01:27:01;;;;;;;8.57;6.20;;;14.10;99.90;;;;;;5021999;28;20274;-68
2022/05/26 01:30:05;;;;;;;6.83;6.13;;;14.10;99.90;;;;;;5022479;28;20248;-69
2022/05/26 01:32:49;;;;;;;7.93;6.87;;;14.10;99.90;;;;;;5022049;28;20718;-70
2022/05/26 01:35:23;;;;;;;6.73;6.00;;;14.10;99.90;;;;;;5022789;28;20251;-70
2022/05/26 01:38:04;;;;;;;10.03;6.67;;;14.20;99.90;;;;;;5021950;28;20270;-69
2022/05/26 01:40:38;;;;;;;8.27;6.33;;;14.10;99.90;;;;;;5022359;28;20605;-69
2022/05/26 01:43:13;;;;;;;8.67;6.33;;;14.10;99.90;;;;;;5021112;28;20255;-69
2022/05/26 01:45:48;;;;;;;7.53;6.23;;;14.20;99.90;;;;;;5021010;28;20718;-69
2022/05/26 01:48:25;;;;;;;7.87;6.10;;;14.20;99.90;;;;;;5022601;28;20248;-69
2022/05/26 01:51:01;;;;;;;9.50;6.40;;;14.20;99.90;;;;;;5022078;28;21008;-70
2022/05/26 01:53:37;;;;;;;8.23;6.77;;;14.20;99.90;;;;;;5021254;28;20580;-69
2022/05/26 01:56:12;;;;;;;8.50;6.87;;;14.20;99.90;;;;;;5021244;28;20780;-70
2022/05/26 01:58:44;;;;;;;7.30;6.17;;;14.20;99.90;;;;;;5021650;28;20657;-68
2022/05/26 02:01:17;;;;;;;9.20;6.53;;;14.20;99.90;;;;;;5021174;28;20243;-69
2022/05/26 02:03:48;;;;;;;7.73;6.43;;;14.20;99.90;;;;;;5020686;28;20234;-70
2022/05/26 02:06:22;;;;;;;9.60;6.70;;;14.20;99.90;;;;;;5021353;28;20240;-69
2022/05/26 02:08:56;;;;;;;11.93;7.07;;;14.20;99.90;;;;;;5020774;28;20246;-69
2022/05/26 02:11:26;;;;;;;8.83;6.37;;;14.20;99.90;;;;;;5021010;28;20342;-69
2022/05/26 02:13:58;;;;;;;8.93;6.40;;;14.20;99.90;;;;;;5020370;28;20974;-69
2022/05/26 02:16:35;;;;;;;8.30;6.40;;;14.20;99.90;;;;;;5020496;28;20290;-69
2022/05/26 02:19:11;;;;;;;9.43;6.87;;;14.30;99.90;;;;;;5022176;28;20243;-69
2022/05/26 02:21:44;;;;;;;8.10;6.33;;;14.30;99.90;;;;;;5021559;28;20236;-70
2022/05/26 02:24:18;;;;;;;10.80;6.87;;;14.30;99.90;;;;;;5020940;28;20301;-69
2022/05/26 02:26:47;;;;;;;9.10;7.07;;;14.30;99.90;;;;;;5020416;28;20310;-70
2022/05/26 02:32:04;;;;;;;8.43;7.00;;;14.30;99.90;;;;;;5021996;28;20331;-69
2022/05/26 02:34:34;;;;;;;9.27;7.37;;;14.30;99.90;;;;;;5020124;28;20791;-69
2022/05/26 02:37:04;;;;;;;12.43;7.60;;;14.30;99.90;;;;;;5022763;28;20737;-69
2022/05/26 02:39:32;;;;;;;11.10;7.17;;;14.30;99.90;;;;;;5021852;28;20249;-68
2022/05/26 02:42:00;;;;;;;10.23;7.37;;;14.30;99.90;;;;;;5022470;28;20240;-69
2022/05/26 02:44:33;;;;;;;8.73;7.63;;;14.30;99.90;;;;;;5019715;28;20243;-69
2022/05/26 02:47:21;;;;;;;8.73;7.13;;;14.30;99.90;;;;;;5021935;28;20310;-68
2022/05/26 02:50:02;;;;;;;10.90;7.53;;;14.30;99.90;;;;;;5021979;28;20240;-69
2022/05/26 02:52:38;;;;;;;7.97;7.13;;;14.20;99.90;;;;;;5024385;28;20247;-69
2022/05/26 02:55:18;;;;;;;11.80;7.80;;;14.20;99.90;;;;;;5025850;28;20271;-70
2022/05/26 02:58:03;;;;;;;8.43;6.87;;;14.30;99.90;;;;;;5025017;28;20658;-69
2022/05/26 03:00:38;;;;;;;10.00;7.27;;;14.30;99.90;;;;;;5025275;28;20580;-67
2022/05/26 03:03:13;;;;;;;8.83;7.30;;;14.30;99.90;;;;;;5025323;28;20294;-69
2022/05/26 03:05:49;;;;;;;9.67;7.47;;;14.30;99.90;;;;;;5024424;28;20235;-68
2022/05/26 03:08:22;;;;;;;9.83;7.70;;;14.30;99.90;;;;;;5025997;28;20301;-70
2022/05/26 03:10:52;;;;;;;8.80;7.47;;;14.30;99.90;;;;;;5024311;28;20787;-69
2022/05/26 03:13:21;;;;;;;9.77;7.40;;;14.30;99.90;;;;;;5027876;28;20714;-70
2022/05/26 03:15:49;;;;;;;8.80;7.90;;;14.30;99.90;;;;;;5028211;28;20244;-69
2022/05/26 03:18:17;;;;;;;10.93;7.80;;;14.30;99.90;;;;;;5025348;28;20608;-70
2022/05/26 03:20:47;;;;;;;12.83;7.90;;;14.30;99.90;;;;;;5033971;28;20591;-69
2022/05/26 03:23:15;;;;;;;8.93;7.70;;;14.30;99.90;;;;;;5033900;28;20243;-70
2022/05/26 03:25:45;;;;;;;9.00;7.07;;;14.30;99.90;;;;;;5034131;28;20761;-70
2022/05/26 03:28:14;;;;;;;11.90;8.43;;;14.40;99.90;;;;;;5032141;28;20239;-69
2022/05/26 03:30:42;;;;;;;9.87;7.60;;;14.40;99.90;;;;;;5033454;28;20235;-70
2022/05/26 03:33:10;;;;;;;9.87;8.00;;;14.30;99.90;;;;;;5034319;28;20587;-70
2022/05/26 03:41:10;;;;;;;10.10;7.20;;;14.40;99.90;;;;;;5032784;28;20248;-69
2022/05/26 03:43:41;;;;;;;8.73;7.63;;;14.40;99.90;;;;;;5032570;28;20229;-70
2022/05/26 03:46:09;;;;;;;10.17;7.43;;;14.40;99.90;;;;;;5033339;28;20326;-70
2022/05/26 03:48:38;;;;;;;11.23;7.13;;;14.40;99.90;;;;;;5032167;28;20236;-70
2022/05/26 03:51:06;;;;;;;8.40;7.03;;;14.40;99.90;;;;;;5033353;28;20323;-70
2022/05/26 03:53:35;;;;;;;10.50;7.40;;;14.40;99.90;;;;;;5033037;28;20244;-70
2022/05/26 03:56:05;;;;;;;10.53;7.30;;;14.40;99.90;;;;;;5033096;28;20246;-69
2022/05/26 03:58:35;;;;;;;10.73;7.60;;;14.40;99.90;;;;;;5016872;28;20647;-70
2022/05/26 04:01:04;;;;;;;11.30;7.23;;;14.40;99.90;;;;;;5013349;28;20685;-70
2022/05/26 04:03:33;;;;;;;10.67;7.43;;;14.40;99.90;;;;;;5031647;28;20283;-70
2022/05/26 04:06:02;;;;;;;12.57;7.17;;;14.40;99.90;;;;;;5029937;28;20247;-70
2022/05/26 04:08:30;;;;;;;9.57;7.03;;;14.40;99.90;;;;;;5020416;28;20252;-70
2022/05/26 04:10:59;;;;;;;12.73;6.60;;;14.40;99.90;;;;;;5013461;28;20719;-69
2022/05/26 04:13:30;;;;;;;10.67;6.40;;;14.40;99.90;;;;;;5013322;28;20244;-70
2022/05/26 04:15:58;;;;;;;10.90;6.10;;;14.40;99.90;;;;;;5013418;28;20245;-70
2022/05/26 04:18:26;;;;;;;9.17;5.93;;;14.50;99.90;;;;;;5027328;28;20259;-70
2022/05/26 04:21:03;;;;;;;9.70;6.00;;;14.50;99.90;;;;;;5032970;28;20290;-70
2022/05/26 04:23:32;;;;;;;12.87;6.80;;;14.50;99.90;;;;;;5031814;28;20623;-70
2022/05/26 04:26:01;;;;;;;11.27;6.30;;;14.60;99.90;;;;;;5032758;28;20610;-70
2022/05/26 04:28:29;;;;;;;12.87;6.83;;;14.60;99.90;;;;;;5032737;28;20236;-70
2022/05/26 04:30:58;;;;;;;11.53;6.00;;;14.60;99.90;;;;;;5032966;28;20243;-70
2022/05/26 04:33:26;;;;;;;11.87;6.27;;;14.60;99.90;;;;;;5033999;28;20706;-70
2022/05/26 04:35:56;;;;;;;10.77;6.13;;;14.60;99.90;;;;;;5032682;28;20235;-70
2022/05/26 04:38:24;;;;;;;9.37;5.63;;;14.60;99.90;;;;;;5025735;28;20276;-70
2022/05/26 04:40:57;;;;;;;9.60;5.80;;;14.60;99.90;;;;;;5027199;28;20721;-70
2022/05/26 04:43:27;;;;;;;13.77;6.07;;;14.60;99.90;;;;;;5025081;28;20279;-69
2022/05/26 04:45:55;;;;;;;11.13;5.50;;;14.60;99.90;;;;;;5032326;28;20715;-69
2022/05/26 04:48:26;;;;;;;10.00;5.30;;;14.70;99.90;;;;;;5013697;28;20233;-70
2022/05/26 04:50:54;;;;;;;10.93;5.80;;;14.80;99.90;;;;;;5025049;28;20237;-70
2022/05/26 04:53:22;;;;;;;9.20;5.27;;;14.70;99.90;;;;;;5023311;28;20272;-69
2022/05/26 04:55:54;;;;;;;11.33;5.80;;;14.80;99.90;;;;;;5013697;28;20225;-70
2022/05/26 04:58:23;;;;;;;10.83;5.20;;;14.80;99.90;;;;;;5012271;28;20244;-69
2022/05/26 05:00:52;;;;;;;12.03;4.87;;;14.80;99.90;;;;;;5022939;28;20243;-70
2022/05/26 05:03:21;;;;;;;11.30;5.17;;;15.00;99.90;;;;;;5033466;28;20298;-69
2022/05/26 05:05:49;;;;;;;9.27;4.60;;;15.20;99.90;;;;;;5031908;28;20228;-70
2022/05/26 05:08:18;;;;;;;12.43;4.63;;;15.50;99.90;;;;;;5026133;28;20244;-70
2022/05/26 05:10:46;;;;;;;11.37;4.37;;;15.60;99.90;;;;;;5029040;28;20240;-70
2022/05/26 05:13:14;;;;;;;10.67;4.37;;;15.60;99.90;;;;;;5031476;28;20224;-70
2022/05/26 05:15:47;;;;;;;12.67;4.70;;;15.70;99.90;;;;;;5030929;28;20239;-69
2022/05/26 05:18:16;;;;;;;9.47;4.17;;;15.90;99.90;;;;;;5028764;28;20263;-70
2022/05/26 05:20:45;;;;;;;9.70;3.87;;;16.00;99.90;;;;;;5028321;28;20627;-70
2022/05/26 05:23:14;;;;;;;11.47;4.13;;;16.20;99.90;;;;;;5031332;28;20256;-69
2022/05/26 05:25:45;;;;;;;10.80;4.10;;;16.30;99.90;;;;;;5028223;28;20700;-70
2022/05/26 05:28:17;;;;;;;11.27;3.70;;;16.40;99.90;;;;;;5031339;28;20275;-70
2022/05/26 05:30:50;;;;;;;12.73;4.60;;;16.60;99.90;;;;;;5025959;28;20240;-70
2022/05/26 05:33:22;;;;;;;12.13;4.03;;;16.70;99.90;;;;;;5032637;28;20233;-70
2022/05/26 05:35:56;;;;;;;9.33;3.70;;;16.70;99.90;;;;;;5030290;28;20252;-70
2022/05/26 05:38:26;;;;;;;11.23;3.63;;;16.60;99.90;;;;;;5023482;28;20728;-70
2022/05/26 05:40:55;;;;;;;9.83;4.03;;;16.70;99.90;;;;;;5012154;28;20251;-70
2022/05/26 05:43:23;;;;;;;10.63;3.53;;;16.80;99.90;;;;;;5011678;28;20639;-70
2022/05/26 05:45:51;;;;;;;12.03;4.10;;;17.10;99.90;;;;;;5011703;28;20743;-70
2022/05/26 05:48:21;;;;;;;12.27;3.30;;;17.20;99.90;;;;;;5011753;28;20660;-70
2022/05/26 05:50:49;;;;;;;10.13;3.60;;;17.20;99.90;;;;;;5013753;28;20241;-70
2022/05/26 05:53:18;;;;;;;7.27;3.27;;;17.30;99.90;;;;;;5011656;28;20684;-70
2022/05/26 05:55:46;;;;;;;8.03;3.50;;;17.60;99.90;;;;;;5027042;28;20237;-70
2022/05/26 05:58:15;;;;;;;7.80;3.60;;;17.80;99.90;;;;;;5031175;28;20243;-70
2022/05/26 06:00:44;;;;;;;10.80;2.93;;;17.50;99.90;;;;;;5018007;28;20260;-70
2022/05/26 06:03:12;;;;;;;12.93;3.47;;;17.60;99.90;;;;;;5030211;28;20324;-70
2022/05/26 06:05:42;;;;;;;8.37;2.77;;;17.80;99.90;;;;;;5025297;28;20237;-70
2022/05/26 06:08:10;;;;;;;13.80;3.43;;;18.20;99.90;;;;;;5027429;28;20229;-69
2022/05/26 06:10:39;;;;;;;10.60;3.07;;;18.20;99.90;;;;;;5011450;28;20241;-69
2022/05/26 06:13:07;;;;;;;8.70;2.70;;;18.10;99.90;;;;;;5013830;28;20237;-70
2022/05/26 06:15:35;;;;;;;8.13;2.57;;;18.00;99.90;;;;;;5024136;28;20272;-70
2022/05/26 06:18:06;;;;;;;10.67;2.80;;;18.30;99.90;;;;;;5031056;28;20233;-71
2022/05/26 06:20:34;;;;;;;7.83;2.43;;;18.10;99.90;;;;;;5014722;28;20268;-70
2022/05/26 06:23:04;;;;;;;8.33;2.27;;;18.20;99.90;;;;;;5012482;28;20250;-70
2022/05/26 06:25:32;;;;;;;7.60;2.20;;;18.20;99.90;;;;;;5010362;28;20665;-70
2022/05/26 06:30:46;;;;;;;7.60;2.13;;;18.20;99.90;;;;;;5010508;28;20242;-70
2022/05/26 06:39:01;;;;;;;8.37;2.37;;;18.20;99.90;;;;;;4974481;28;20777;-70
2022/05/26 06:44:14;;;;;;;5.57;1.80;;;17.50;99.90;;;;;;5003503;28;20262;-70
2022/05/26 06:46:42;;;;;;;7.43;1.80;;;17.70;99.90;;;;;;5029955;28;20247;-70
2022/05/26 06:49:11;;;;;;;5.47;1.30;;;18.00;99.90;;;;;;5029861;28;20732;-70
2022/05/26 06:51:42;;;;;;;4.40;1.33;;;18.40;99.90;;;;;;5029610;28;20684;-70
2022/05/26 06:54:11;;;;;;;4.17;1.40;;;18.60;99.90;;;;;;5028872;28;20237;-70
2022/05/26 06:56:39;;;;;;;8.23;1.60;;;18.60;99.90;;;;;;5030554;28;20713;-71
2022/05/26 06:59:07;;;;;;;8.67;1.40;;;18.60;99.90;;;;;;5030273;28;20307;-70
2022/05/26 07:01:36;;;;;;;5.77;1.70;;;18.80;99.90;;;;;;5031749;28;20237;-71
2022/05/26 07:04:05;;;;;;;4.90;1.60;;;18.80;99.90;;;;;;5028698;28;20277;-70
2022/05/26 07:06:33;;;;;;;6.80;1.40;;;18.70;99.90;;;;;;5029974;28;20241;-71
2022/05/26 07:09:01;;;;;;;3.27;1.27;;;18.50;99.90;;;;;;5018419;28;20287;-71
2022/05/26 07:11:32;;;;;;;3.90;1.20;;;18.70;99.90;;;;;;5020397;28;20602;-70
2022/05/26 07:14:00;;;;;;;6.57;1.23;;;18.90;99.90;;;;;;5030106;28;20232;-70
2022/05/26 07:16:28;;;;;;;6.00;1.40;;;19.40;99.90;;;;;;5029710;28;20239;-71
2022/05/26 07:18:56;;;;;;;7.20;1.30;;;19.50;99.90;;;;;;5030577;28;20248;-71
2022/05/26 07:21:24;;;;;;;4.20;1.00;;;19.50;99.90;;;;;;5029291;28;20237;-70
2022/05/26 07:23:53;;;;;;;7.03;1.10;;;19.60;99.90;;;;;;5028671;28;20702;-71
2022/05/26 07:26:21;;;;;;;3.70;1.03;;;19.40;99.90;;;;;;5030167;28;20231;-71
2022/05/26 07:28:51;;;;;;;4.87;1.00;;;19.40;99.90;;;;;;5029265;28;20231;-71
2022/05/26 07:31:20;;;;;;;5.37;1.37;;;19.30;99.90;;;;;;5029994;28;20590;-70
2022/05/26 07:33:48;;;;;;;5.33;1.10;;;19.60;99.90;;;;;;5024278;28;20321;-71
2022/05/26 07:41:53;;;;;;;3.90;1.20;;;19.90;99.90;;;;;;5014075;28;20244;-71
2022/05/26 07:44:23;;;;;;;5.63;1.20;;;19.70;99.90;;;;;;5013858;28;20271;-70
2022/05/26 07:46:51;;;;;;;3.10;1.23;;;19.70;99.90;;;;;;5013690;28;20246;-71
2022/05/26 07:49:19;;;;;;;3.37;0.93;;;19.80;99.90;;;;;;5021747;28;20243;-70
2022/05/26 07:51:48;;;;;;;4.53;0.90;;;19.60;99.90;;;;;;5031939;28;20235;-70
2022/05/26 07:54:16;;;;;;;4.63;1.10;;;19.30;99.90;;;;;;5033686;28;20239;-70
2022/05/26 07:56:44;;;;;;;3.90;0.80;;;19.80;99.90;;;;;;5033323;28;20239;-70
2022/05/26 07:59:12;;;;;;;3.53;0.87;;;20.30;99.90;;;;;;5030670;28;20239;-70
2022/05/26 08:01:41;;;;;;;3.60;1.20;;;20.50;99.90;;;;;;5032955;28;20314;-70
2022/05/26 08:04:10;;;;;;;4.00;0.90;;;20.10;99.90;;;;;;5030818;28;20700;-71
2022/05/26 08:06:38;;;;;;;5.00;0.70;;;20.30;99.90;;;;;;5027723;28;20227;-71
2022/05/26 08:09:06;;;;;;;3.43;1.00;;;20.60;99.90;;;;;;5026225;28;20240;-71
2022/05/26 08:11:34;;;;;;;3.87;0.90;;;20.90;99.90;;;;;;5028214;28;20623;-69
2022/05/26 08:14:02;;;;;;;4.90;1.30;;;21.40;99.90;;;;;;5031700;28;20247;-70
2022/05/26 08:16:31;;;;;;;4.50;1.00;;;21.40;99.90;;;;;;5032607;28;20233;-70
2022/05/26 08:19:00;;;;;;;4.70;0.90;;;21.60;99.90;;;;;;5032932;28;20742;-68
2022/05/26 08:21:29;;;;;;;4.70;0.80;;;21.80;99.90;;;;;;5030887;28;20251;-68
2022/05/26 08:23:57;;;;;;;2.33;0.90;;;21.80;99.90;;;;;;5032555;28;20323;-68
2022/05/26 08:26:25;;;;;;;3.97;1.00;;;21.70;99.90;;;;;;5032686;28;20713;-68
2022/05/26 08:28:53;;;;;;;2.67;0.80;;;21.30;99.90;;;;;;5032400;28;20792;-68
2022/05/26 08:31:21;;;;;;;2.93;0.80;;;21.60;99.90;;;;;;5030208;28;20251;-68
2022/05/26 08:33:50;;;;;;;2.73;0.83;;;21.90;99.90;;;;;;5032677;28;20250;-68
2022/05/26 08:36:21;;;;;;;3.10;0.67;;;22.10;99.90;;;;;;5026602;28;20703;-68
2022/05/26 08:38:49;;;;;;;3.00;0.83;;;22.40;99.90;;;;;;5028190;28;20243;-67
2022/05/26 08:41:21;;;;;;;3.60;0.90;;;22.80;99.90;;;;;;5027934;28;20243;-68
2022/05/26 08:43:56;;;;;;;3.53;0.90;;;23.00;99.90;;;;;;5030454;28;20290;-68
2022/05/26 08:46:27;;;;;;;3.53;0.90;;;23.00;99.90;;;;;;5031074;28;20745;-67
2022/05/26 08:49:11;;;;;;;2.13;0.70;;;22.40;99.90;;;;;;5031823;28;20232;-68
2022/05/26 08:51:47;;;;;;;2.10;0.70;;;22.10;99.90;;;;;;5029125;28;20287;-67
2022/05/26 08:54:33;;;;;;;2.63;0.80;;;21.90;99.90;;;;;;5030529;28;20261;-67
2022/05/26 08:57:03;;;;;;;1.90;0.70;;;22.00;99.90;;;;;;5032292;28;20316;-68
2022/05/26 08:59:37;;;;;;;3.10;0.93;;;21.80;99.90;;;;;;5030618;28;20255;-68
2022/05/26 09:02:13;;;;;;;2.63;0.70;;;21.00;99.90;;;;;;5033006;28;20239;-68
2022/05/26 09:04:41;;;;;;;3.83;0.80;;;21.10;99.90;;;;;;5030172;28;20248;-68
2022/05/26 09:12:59;;;;;;;4.07;0.93;;;22.10;99.90;;;;;;5030221;28;20715;-67
2022/05/26 09:15:29;;;;;;;3.70;0.80;;;22.50;99.90;;;;;;5029907;28;20239;-67
2022/05/26 09:17:57;;;;;;;2.43;0.70;;;22.80;99.90;;;;;;5031291;28;20242;-67
2022/05/26 09:20:38;;;;;;;4.07;1.10;;;22.80;99.90;;;;;;5031280;28;20263;-67
2022/05/26 09:23:14;;;;;;;2.87;0.87;;;22.60;99.90;;;;;;5029659;28;20294;-68
2022/05/26 09:25:47;;;;;;;3.40;1.00;;;22.60;99.90;;;;;;5031030;28;20342;-67
2022/05/26 09:28:27;;;;;;;2.80;0.87;;;22.70;99.90;;;;;;5029130;28;20233;-68
2022/05/26 09:30:55;;;;;;;3.13;1.07;;;22.40;99.90;;;;;;5028496;28;20278;-67
2022/05/26 09:33:29;;;;;;;3.10;1.00;;;21.70;99.90;;;;;;5030756;28;20280;-68
2022/05/26 09:36:15;;;;;;;4.63;0.70;;;21.20;99.90;;;;;;5029197;28;20290;-68
2022/05/26 09:38:44;;;;;;;3.73;0.97;;;20.90;99.90;;;;;;5029997;28;20250;-68
2022/05/26 09:41:17;;;;;;;3.57;0.87;;;20.90;99.90;;;;;;5028673;28;20691;-67
2022/05/26 09:43:50;;;;;;;4.23;1.00;;;21.20;99.90;;;;;;5030049;28;20322;-67
2022/05/26 09:46:21;;;;;;;3.43;0.90;;;21.10;99.90;;;;;;5029060;28;20240;-67
2022/05/26 09:48:53;;;;;;;2.90;0.87;;;21.00;99.90;;;;;;5030021;28;20246;-67
2022/05/26 09:51:25;;;;;;;4.07;1.00;;;20.60;99.90;;;;;;5030505;28;20327;-67
2022/05/26 09:53:56;;;;;;;5.23;1.10;;;20.70;99.90;;;;;;5030407;28;20244;-67
2022/05/26 09:56:30;;;;;;;4.43;1.00;;;20.90;99.90;;;;;;5032150;28;20265;-67
2022/05/26 09:58:59;;;;;;;6.80;1.30;;;20.50;99.90;;;;;;5031122;28;20703;-67
2022/05/26 10:01:43;;;;;;;4.47;1.23;;;20.30;99.90;;;;;;5028268;28;20247;-68
2022/05/26 10:04:24;;;;;;;5.00;1.00;;;20.20;99.90;;;;;;5029932;28;20315;-68
2022/05/26 10:06:58;;;;;;;2.50;0.70;;;20.10;99.90;;;;;;5028389;28;20239;-67
2022/05/26 10:09:33;;;;;;;4.20;1.00;;;20.10;99.90;;;;;;5030309;28;20236;-68
2022/05/26 10:12:13;;;;;;;6.90;1.20;;;19.70;99.90;;;;;;5029711;28;20717;-67
2022/05/26 10:15:02;;;;;;;4.27;1.20;;;19.60;99.90;;;;;;5030313;28;20646;-68
2022/05/26 10:17:45;;;;;;;4.37;1.00;;;19.70;99.90;;;;;;5028169;28;20318;-67
2022/05/26 10:20:25;;;;;;;3.70;1.00;;;19.60;99.90;;;;;;5028374;28;20267;-67
2022/05/26 10:23:08;;;;;;;3.07;1.20;;;19.90;99.90;;;;;;5027576;28;20289;-67
2022/05/26 10:25:50;;;;;;;5.17;1.00;;;19.80;99.90;;;;;;5022801;28;20243;-67
2022/05/26 10:28:46;;;;;;;4.07;1.10;;;19.90;99.90;;;;;;5020825;28;20267;-67
2022/05/26 10:31:28;;;;;;;4.03;0.97;;;20.10;99.90;;;;;;5020283;28;20247;-67
2022/05/26 10:34:14;;;;;;;4.23;1.10;;;20.00;99.90;;;;;;5021871;28;20258;-68
2022/05/26 10:37:02;;;;;;;5.50;0.93;;;19.90;99.90;;;;;;5030702;28;20240;-67
2022/05/26 10:39:45;;;;;;;6.73;1.10;;;19.70;99.90;;;;;;5026132;28;20242;-66
2022/05/26 10:42:23;;;;;;;3.27;1.13;;;19.80;99.90;;;;;;5027486;28;20239;-67
2022/05/26 10:45:07;;;;;;;3.17;1.07;;;20.00;99.90;;;;;;5027546;28;20267;-68
2022/05/26 10:47:44;;;;;;;8.40;1.43;;;19.80;99.90;;;;;;5025114;28;20255;-68
2022/05/26 10:50:20;;;;;;;3.20;0.90;;;19.50;99.90;;;;;;5019172;28;20326;-68
2022/05/26 10:53:03;;;;;;;5.63;1.30;;;19.60;99.90;;;;;;5021752;28;20240;-68
2022/05/26 10:55:40;;;;;;;3.83;1.10;;;20.20;99.90;;;;;;5021487;28;20576;-67
2022/05/26 10:58:20;;;;;;;4.33;1.10;;;20.80;99.90;;;;;;5025325;28;20267;-68
2022/05/26 11:00:59;;;;;;;3.20;0.90;;;20.60;99.90;;;;;;5024695;28;20244;-67
2022/05/26 11:03:38;;;;;;;4.50;0.80;;;20.60;99.90;;;;;;5020764;28;20567;-68
2022/05/26 11:06:24;;;;;;;4.50;0.90;;;20.40;99.90;;;;;;5021333;28;20239;-67
2022/05/26 11:08:59;;;;;;;4.30;0.90;;;20.10;99.90;;;;;;5018087;28;20242;-67
2022/05/26 11:11:38;;;;;;;2.93;0.83;;;19.90;99.90;;;;;;5020547;28;20796;-68
2022/05/26 11:17:21;;;;;;;5.67;1.00;;;19.40;99.90;;;;;;5024695;28;20358;-68
2022/05/26 11:17:22;;;;;;;2.10;0.73;;;19.20;99.90;;;;;;5029947;28;20237;-68
2022/05/26 11:19:54;;;;;;;4.13;0.80;;;19.10;99.90;;;;;;5024221;28;20253;-67
2022/05/26 11:22:24;;;;;;;2.93;0.93;;;18.80;99.90;;;;;;5023771;28;20239;-67
2022/05/26 11:24:53;;;;;;;4.80;1.20;;;18.60;99.90;;;;;;5024322;28;20908;-68
2022/05/26 11:27:28;;;;;;;4.37;1.00;;;18.60;99.90;;;;;;5024265;28;20243;-67
2022/05/26 11:30:04;;;;;;;2.70;0.70;;;18.70;99.90;;;;;;5021884;28;20238;-67
2022/05/26 11:38:17;;;;;;;4.37;0.90;;;18.70;99.90;;;;;;5026537;28;20250;-68
2022/05/26 11:40:50;;;;;;;4.00;0.90;;;18.90;99.90;;;;;;5025955;28;20249;-68
2022/05/26 11:43:25;;;;;;;4.27;0.87;;;19.20;99.90;;;;;;5033213;28;20239;-68
2022/05/26 11:45:55;;;;;;;2.83;1.10;;;19.60;99.90;;;;;;5033719;28;20591;-68
2022/05/26 11:48:42;;;;;;;4.77;1.10;;;19.50;99.90;;;;;;5033225;28;20242;-68
2022/05/26 11:51:35;;;;;;;2.80;1.10;;;19.20;99.90;;;;;;5033430;28;20235;-68
2022/05/26 11:54:03;;;;;;;2.63;0.90;;;19.00;99.90;;;;;;5024787;28;20739;-68
2022/05/26 11:56:49;;;;;;;5.03;1.00;;;19.00;99.90;;;;;;5024295;28;20301;-68
2022/05/26 11:59:47;;;;;;;2.53;0.80;;;19.10;99.90;;;;;;5026280;28;20243;-68
2022/05/26 12:02:38;;;;;;;4.93;1.03;;;19.20;99.90;;;;;;5023080;28;20694;-68
2022/05/26 12:05:41;;;;;;;2.67;1.00;;;19.30;99.90;;;;;;5024204;28;20246;-68
2022/05/26 12:08:29;;;;;;;5.13;1.10;;;19.60;99.90;;;;;;5024305;28;20267;-68
2022/05/26 12:10:59;;;;;;;4.00;1.10;;;19.90;99.90;;;;;;5023938;28;20243;-68
2022/05/26 12:13:32;;;;;;;4.73;1.03;;;19.90;99.90;;;;;;5021827;28;20606;-68
2022/05/26 12:16:23;;;;;;;3.00;1.20;;;19.70;99.90;;;;;;5024589;28;20242;-69
2022/05/26 12:18:56;;;;;;;4.43;0.90;;;19.50;99.90;;;;;;5023780;28;20753;-67
2022/05/26 12:21:41;;;;;;;3.83;1.10;;;19.50;99.90;;;;;;5028501;28;20243;-67
2022/05/26 12:24:58;;;;;;;3.57;1.10;;;19.20;99.90;;;;;;5031583;28;20289;-67
2022/05/26 12:27:58;;;;;;;3.47;1.00;;;19.20;99.90;;;;;;5032855;28;20750;-67
2022/05/26 12:30:57;;;;;;;2.37;0.90;;;19.10;99.90;;;;;;5032803;28;20578;-67
2022/05/26 12:33:53;;;;;;;4.70;1.17;;;18.80;99.90;;;;;;5012275;28;20236;-67
2022/05/26 12:36:48;;;;;;;4.70;1.13;;;18.80;99.90;;;;;;5028868;28;20239;-67
2022/05/26 12:40:07;;;;;;;2.70;0.67;;;19.10;99.90;;;;;;5032783;28;20618;-67
2022/05/26 12:42:53;;;;;;;2.53;0.90;;;18.90;99.90;;;;;;5027482;28;20247;-67
2022/05/26 12:45:30;;;;;;;4.57;1.30;;;18.80;99.90;;;;;;5032379;28;20623;-67
2022/05/26 12:48:18;;;;;;;6.63;1.00;;;18.90;99.90;;;;;;5032161;28;20288;-67
2022/05/26 12:50:46;;;;;;;3.57;0.90;;;18.70;99.90;;;;;;5029187;28;20635;-67
2022/05/26 12:53:21;;;;;;;4.73;0.70;;;18.60;99.90;;;;;;5032353;28;20235;-67
2022/05/26 12:55:58;;;;;;;5.10;0.80;;;18.70;99.90;;;;;;5018220;28;20246;-67
2022/05/26 12:58:36;;;;;;;3.93;1.17;;;19.10;99.90;;;;;;5022875;28;20259;-67
2022/05/26 13:01:06;;;;;;;3.40;0.87;;;19.30;99.90;;;;;;5023576;28;20266;-67
2022/05/26 13:03:39;;;;;;;3.70;1.00;;;19.50;99.90;;;;;;5023983;28;20250;-67
2022/05/26 13:06:10;;;;;;;6.73;1.17;;;19.50;99.90;;;;;;5026284;28;20385;-67
2022/05/26 13:08:47;;;;;;;3.27;1.00;;;19.30;99.90;;;;;;5026834;28;20239;-67
2022/05/26 13:11:18;;;;;;;3.43;0.83;;;18.90;99.90;;;;;;5029210;28;20231;-67
2022/05/26 13:13:51;;;;;;;5.70;0.97;;;18.90;99.90;;;;;;5031488;28;20740;-67
2022/05/26 13:16:25;;;;;;;3.50;1.00;;;18.90;99.90;;;;;;5026199;28;20247;-67
2022/05/26 13:18:54;;;;;;;4.53;0.67;;;18.90;99.90;;;;;;5030892;28;20396;-67
2022/05/26 13:21:29;;;;;;;3.43;1.00;;;18.90;99.90;;;;;;5027338;28;20242;-67
2022/05/26 13:23:58;;;;;;;6.37;1.27;;;19.20;99.90;;;;;;5023204;28;20338;-67
2022/05/26 13:26:27;;;;;;;3.97;0.90;;;19.40;99.90;;;;;;5019692;28;20651;-66
2022/05/26 13:28:57;;;;;;;2.17;0.80;;;19.50;99.90;;;;;;5022179;28;20239;-67
2022/05/26 13:34:15;;;;;;;5.13;1.30;;;19.10;99.90;;;;;;5023770;28;20372;-66
2022/05/26 13:36:45;;;;;;;3.83;1.00;;;18.80;99.90;;;;;;5019528;28;20231;-67
2022/05/26 13:39:18;;;;;;;5.63;0.90;;;18.60;99.90;;;;;;5022629;28;20259;-67
2022/05/26 13:41:50;;;;;;;5.77;1.07;;;18.50;99.90;;;;;;5023213;28;20344;-67
2022/05/26 13:44:30;;;;;;;4.27;1.00;;;18.40;99.90;;;;;;5024360;28;20268;-67
2022/05/26 13:47:00;;;;;;;4.73;1.20;;;18.40;99.90;;;;;;5018967;28;20241;-67
2022/05/26 13:49:32;;;;;;;4.73;1.03;;;18.50;99.90;;;;;;5021746;28;20258;-67
2022/05/26 13:52:08;;;;;;;6.90;1.23;;;18.60;99.90;;;;;;5024346;28;20729;-67
2022/05/26 13:54:44;;;;;;;3.83;0.97;;;18.70;99.90;;;;;;5021493;28;21179;-67
2022/05/26 13:57:18;;;;;;;5.33;1.10;;;18.80;99.90;;;;;;5019785;28;20231;-67